Latest Weather Observations for Canterbury

IDN60901

Issued at 1:51 pm EDT Saturday 20 December 2014 (issued every 10 minutes, with the page automatically refreshed every 10 minutes)

About weather observations | Map of Sydney area stations | Latest observations for Sydney area | Other Formats
Station Details ID: 066194 Name: CANTERBURY RACECOURSE AWS Lat: -33.91 Lon: 151.11 Height: 3.0 m
Data from the previous 72 hours. | See also: Recent months at Canterbury
Date/Time
EDT
Tmp

°C
App
Tmp
°C
Dew
Point
°C
Rel
Hum
%
Delta-T

°C
Wind Press
QNH
hPa
Press
MSL
hPa
Rain
since
9 am
mm
Dir
 
Spd
km/h
Gust
km/h
Spd
kts
Gust
kts
20/01:30pm 22.5 19.3 11.9 51 6.0 ESE 20 30 11 16 - - 0.0
20/01:00pm 23.1 21.2 11.8 49 6.4 E 13 22 7 12 - - 0.0
20/12:30pm 22.5 19.9 10.6 47 6.5 ENE 15 24 8 13 - - 0.0
20/12:00pm 21.8 19.5 10.3 48 6.3 E 13 22 7 12 - - 0.0
20/11:30am 22.2 20.5 11.3 50 6.1 ESE 11 19 6 10 - - 0.0
20/11:00am 21.7 20.4 11.1 51 5.9 ESE 9 15 5 8 - - 0.0
20/10:30am 21.7 20.9 11.7 53 5.6 - 7 15 4 8 - - 0.0
20/10:00am 20.8 19.2 11.4 55 5.2 SE 11 19 6 10 - - 0.0
20/09:30am 19.0 17.1 10.6 58 4.5 SSE 11 17 6 9 - - 0.0
20/09:00am 18.8 17.3 10.6 59 4.4 SE 9 13 5 7 - - 0.0
20/08:30am 19.0 17.0 10.3 57 4.7 SE 11 15 6 8 - - 0.0
20/08:00am 18.9 17.8 10.7 59 4.4 SSE 7 11 4 6 - - 0.0
20/07:30am 18.3 18.1 11.8 66 3.6 S 4 7 2 4 - - 0.0
20/07:00am 17.2 17.9 12.1 72 2.8 CALM 0 0 0 0 - - 0.0
20/06:30am 16.9 17.1 12.0 73 2.7 SSE 2 6 1 3 - - 0.0
20/06:00am 16.6 16.8 11.9 74 2.6 SSW 2 7 1 4 - - 0.0
20/05:30am 16.7 16.0 11.4 71 2.9 S 6 9 3 5 - - 0.0
20/05:00am 17.0 16.0 11.1 68 3.2 SSW 7 9 4 5 - - 0.0
20/04:30am 17.6 17.1 10.7 64 3.7 SE 4 7 2 4 - - 0.0
20/04:00am 17.8 16.2 10.2 61 4.0 SSE 9 15 5 8 - - 0.0
20/03:30am 17.9 16.9 11.0 64 3.7 SSE 7 13 4 7 - - 0.0
20/03:00am 17.7 16.7 11.0 65 3.6 SSE 7 11 4 6 - - 0.0
20/02:30am 18.0 16.6 10.9 63 3.8 SE 9 11 5 6 - - 0.0
20/02:00am 18.2 16.7 10.6 61 4.1 SE 9 15 5 8 - - 0.0
20/01:30am 18.2 16.8 10.8 62 4.0 SSE 9 15 5 8 - - 0.0
20/01:00am 18.5 16.8 11.3 63 3.9 SE 11 17 6 9 - - 0.0
20/12:30am 18.5 16.6 10.6 60 4.2 SE 11 17 6 9 - - 0.0
20/12:00am 18.5 16.2 10.6 60 4.2 - 13 19 7 10 - - 0.0
 
Date/Time
EDT
Tmp

°C
App
Tmp
°C
Dew
Point
°C
Rel
Hum
%
Delta-T

°C
Wind Press
QNH
hPa
Press
MSL
hPa
Rain
since
9 am
mm
Dir
 
Spd
km/h
Gust
km/h
Spd
kts
Gust
kts
19/11:30pm 18.7 16.1 10.8 60 4.3 SE 15 22 8 12 - - 0.0
19/11:00pm 18.7 16.8 10.5 59 4.4 SE 11 20 6 11 - - 0.0
19/10:30pm 18.6 15.4 9.9 57 4.6 SE 17 20 9 11 - - 0.0
19/10:00pm 18.8 15.7 10.4 58 4.5 SE 17 26 9 14 - - 0.0
19/09:30pm 18.8 15.4 10.4 58 4.5 SE 19 28 10 15 - - 0.0
19/09:00pm 18.8 15.3 10.1 57 4.6 SE 19 28 10 15 - - 0.0
19/08:30pm 18.9 15.9 10.5 58 4.5 SE 17 26 9 14 - - 0.0
19/08:00pm 18.8 15.2 10.4 58 4.5 SE 20 28 11 15 - - 0.0
19/07:30pm 18.8 14.8 10.4 58 4.5 SE 22 32 12 17 - - 0.0
19/07:00pm 19.0 14.8 9.8 55 4.9 SE 22 33 12 18 - - 0.0
19/06:30pm 19.0 15.0 10.6 58 4.5 SE 22 32 12 17 - - 0.0
19/06:00pm 19.0 14.9 10.0 56 4.8 - 22 33 12 18 - - 0.0
19/05:30pm 19.1 15.5 10.4 57 4.7 SE 20 32 11 17 - - 0.0
19/05:00pm 20.3 16.1 11.0 55 5.1 SE 24 37 13 20 - - 0.0
19/04:30pm 20.3 15.2 10.7 54 5.2 SE 28 41 15 22 - - 0.0
19/04:00pm 20.3 15.5 10.4 53 5.4 SSE 26 39 14 21 - - 0.0
19/03:30pm 20.7 16.6 10.2 51 5.7 SSE 22 32 12 17 - - 0.0
19/03:00pm 20.6 16.0 9.5 49 5.9 SSE 24 37 13 20 - - 0.0
19/02:30pm 20.7 16.8 10.8 53 5.4 SE 22 39 12 21 - - 0.0
19/02:00pm 19.8 15.0 10.2 54 5.2 SE 26 39 14 21 - - 0.0
19/01:30pm 19.6 14.1 10.6 56 4.9 SE 30 41 16 22 - - 0.0
19/01:00pm 21.0 16.7 11.9 56 5.1 SE 26 37 14 20 - - 0.0
19/12:30pm 19.8 15.6 11.0 57 4.8 SE 24 43 13 23 - - 0.0
19/12:00pm 20.1 16.3 11.3 57 4.8 SE 22 35 12 19 - - 0.0
19/11:46am 20.0 15.2 11.5 58 4.7 SE 28 46 15 25 - - 0.0
19/11:30am 20.7 16.4 11.9 57 4.9 SSE 26 41 14 22 - - 0.0
19/11:00am 20.3 16.5 11.2 56 5.0 SSE 22 35 12 19 - - 0.0
19/10:30am 20.7 17.1 12.9 61 4.4 SSE 24 35 13 19 - - 0.0
19/10:00am 20.2 15.6 10.9 55 5.1 SSE 26 37 14 20 - - 0.0
19/09:30am 20.6 16.5 11.5 56 5.0 SSE 24 37 13 20 - - 0.0
19/09:00am 20.4 16.6 11.3 56 5.0 SSE 22 35 12 19 - - 0.0
19/08:30am 19.9 15.6 12.2 61 4.3 SSE 26 41 14 22 - - 0.0
19/08:00am 19.7 16.2 12.2 62 4.2 S 22 41 12 22 - - 0.0
19/07:30am 19.4 15.1 12.2 63 4.0 SSE 26 43 14 23 - - 0.0
19/07:00am 18.7 15.7 12.7 68 3.4 SSE 20 32 11 17 - - 0.0
19/06:30am 17.9 15.2 13.4 75 2.5 SSE 20 33 11 18 - - 0.0
19/06:00am 17.6 15.0 13.7 78 2.2 S 20 33 11 18 - - 0.0
19/05:30am 17.8 14.9 13.9 78 2.2 SSE 22 35 12 19 - - 0.0
19/05:00am 17.8 14.0 13.7 77 2.3 S 26 41 14 22 - - 0.0
19/04:39am 18.0 14.0 14.1 78 2.2 S 28 56 15 30 - - 0.0
19/04:30am 18.1 15.0 14.4 79 2.1 S 24 46 13 25 - - 0.0
19/04:24am 18.2 14.3 14.3 78 2.2 S 28 46 15 25 - - 0.0
19/04:16am 18.3 14.5 14.6 79 2.1 S 28 43 15 23 - - 0.0
19/04:00am 19.3 19.3 17.1 87 1.3 WSW 13 19 7 10 - - 0.0
19/03:30am 19.8 20.2 18.1 90 1.1 WSW 13 20 7 11 - - 0.0
19/03:00am 19.9 20.1 18.6 92 0.8 WSW 15 22 8 12 - - 0.0
19/02:30am 19.2 20.9 18.4 95 0.5 WNW 7 9 4 5 - - 0.0
19/02:05am 19.3 21.0 18.6 96 0.4 WNW 7 9 4 5 - - 0.0
19/02:00am 19.2 21.1 18.5 96 0.4 WNW 6 9 3 5 - - 0.0
19/01:46am 17.9 19.6 17.1 95 0.5 W 4 7 2 4 - - 0.0
19/01:30am 18.8 21.3 18.1 96 0.4 SE 2 6 1 3 - - 0.0
19/01:00am 18.0 20.3 16.7 92 0.8 CALM 0 0 0 0 - - 0.0
19/12:55am 18.5 21.1 17.5 94 0.6 CALM 0 0 0 0 - - 0.0
19/12:30am 19.2 22.0 18.0 93 0.7 CALM 0 0 0 0 - - 0.0
19/12:17am 19.0 21.7 17.8 93 0.7 CALM 0 0 0 0 - - 0.0
19/12:12am 19.4 22.3 18.2 93 0.7 CALM 0 0 0 0 - - 0.0
19/12:00am 19.5 22.4 18.3 93 0.7 CALM 0 0 0 0 - - 0.0
 
Date/Time
EDT
Tmp

°C
App
Tmp
°C
Dew
Point
°C
Rel
Hum
%
Delta-T

°C
Wind Press
QNH
hPa
Press
MSL
hPa
Rain
since
9 am
mm
Dir
 
Spd
km/h
Gust
km/h
Spd
kts
Gust
kts
18/11:54pm 19.5 22.4 18.3 93 0.7 CALM 0 0 0 0 - - 0.0
18/11:30pm 19.7 22.7 18.5 93 0.7 CALM 0 0 0 0 - - 0.0
18/11:29pm 19.8 22.9 18.6 93 0.7 CALM 0 0 0 0 - - 0.0
18/11:13pm 19.6 22.4 17.9 90 1.0 CALM 0 0 0 0 - - 0.0
18/11:00pm 20.2 23.3 18.7 91 0.9 CALM 0 0 0 0 - - 0.0
18/10:30pm 20.4 23.0 18.5 89 1.2 SE 2 6 1 3 - - 0.0
18/10:00pm 21.2 24.4 18.8 86 1.5 CALM 0 0 0 0 - - 0.0
18/09:30pm 21.9 24.0 19.3 85 1.7 ENE 7 9 4 5 - - 0.0
18/09:00pm 22.2 24.4 19.2 83 1.9 NE 6 9 3 5 - - 0.0
18/08:30pm 22.2 24.1 19.0 82 2.0 ENE 7 11 4 6 - - 0.0
18/08:00pm 22.7 24.7 19.1 80 2.3 NE 7 11 4 6 - - 0.0
18/07:30pm 23.3 23.8 19.2 78 2.6 ENE 15 24 8 13 - - 0.0
18/07:00pm 23.8 23.8 18.9 74 3.1 ENE 17 22 9 12 - - 0.0
18/06:30pm 24.3 23.6 18.7 71 3.6 ENE 20 30 11 16 - - 0.0
18/06:00pm 24.8 24.2 18.5 68 4.0 ENE 19 26 10 14 - - 0.0
18/05:30pm 25.4 25.3 18.8 67 4.2 ENE 17 26 9 14 - - 0.0
18/05:00pm 25.4 25.2 18.6 66 4.3 ENE 17 24 9 13 - - 0.0
18/04:30pm 25.6 24.8 18.0 63 4.8 ENE 19 26 10 14 - - 0.0
18/04:00pm 25.7 24.9 19.3 67 4.1 ENE 22 33 12 18 - - 0.0
18/03:30pm 25.3 24.4 18.2 64 4.5 ENE 20 30 11 16 - - 0.0
18/03:00pm 25.4 24.2 17.6 62 4.9 ENE 20 33 11 18 - - 0.0
18/02:30pm 25.2 24.7 17.9 64 4.6 ENE 17 30 9 16 - - 0.0
18/02:00pm 25.0 24.8 18.4 66 4.2 ENE 17 32 9 17 - - 0.0
18/01:30pm 24.5 23.7 18.0 67 4.1 NE 19 28 10 15 - - 0.0
18/01:00pm 24.0 23.4 17.5 67 4.0 ENE 17 28 9 15 - - 0.0
18/12:30pm 23.7 23.4 17.4 68 3.9 NNE 15 22 8 12 - - 0.0
18/12:00pm 23.4 22.8 16.7 66 4.1 ENE 15 24 8 13 - - 0.0
18/11:30am 23.1 24.2 17.1 69 3.7 E 7 13 4 7 - - 0.0
18/11:00am 22.0 24.1 16.3 70 3.4 CALM 0 0 0 0 - - 0.0
18/10:30am 21.2 22.7 15.7 71 3.3 ENE 2 7 1 4 - - 0.0
18/10:00am 20.5 22.5 15.9 75 2.7 CALM 0 0 0 0 - - 0.0
18/09:30am 19.4 20.1 15.7 79 2.2 NW 6 9 3 5 - - 0.0
18/09:00am 18.8 19.3 14.9 78 2.3 WSW 6 9 3 5 - - 0.0
18/08:30am 18.5 18.8 15.0 80 2.0 WSW 7 13 4 7 - - 0.0
18/08:00am 17.9 17.7 14.6 81 1.9 WSW 9 11 5 6 - - 0.0
18/07:30am 17.7 17.5 14.6 82 1.8 W 9 13 5 7 - - 0.0
18/07:00am 17.5 17.1 14.2 81 1.9 W 9 13 5 7 - - 0.0
18/06:30am 17.6 17.1 13.9 79 2.1 WNW 9 13 5 7 - - 0.0
18/06:00am 17.9 17.8 13.8 77 2.3 WNW 7 13 4 7 - - 0.0
18/05:30am 17.9 17.7 13.6 76 2.4 W 7 9 4 5 - - 0.0
18/05:00am 18.1 18.0 13.4 74 2.7 SW 6 7 3 4 - - 0.0
18/04:30am 18.3 18.0 13.4 73 2.8 SW 7 9 4 5 - - 0.0
18/04:00am 18.5 18.3 13.1 71 3.0 S 6 9 3 5 - - 0.0
18/03:30am 18.6 19.7 13.5 72 2.9 CALM 0 0 0 0 - - 0.0
18/03:00am 18.7 18.5 13.1 70 3.2 N 6 9 3 5 - - 0.0
18/02:30am 18.8 18.9 12.8 68 3.4 NE 4 7 2 4 - - 0.0
18/02:00am 18.7 19.7 13.1 70 3.2 CALM 0 7 0 4 - - 0.0
18/01:30am 18.9 18.0 12.6 67 3.5 E 9 13 5 7 - - 0.0
18/01:00am 18.9 18.5 12.9 68 3.4 ESE 7 9 4 5 - - 0.0
18/12:30am 18.7 19.1 12.5 67 3.5 ENE 2 7 1 4 - - 0.0
18/12:00am 18.6 18.1 12.6 68 3.4 ENE 7 9 4 5 - - 0.0
 
Date/Time
EDT
Tmp

°C
App
Tmp
°C
Dew
Point
°C
Rel
Hum
%
Delta-T

°C
Wind Press
QNH
hPa
Press
MSL
hPa
Rain
since
9 am
mm
Dir
 
Spd
km/h
Gust
km/h
Spd
kts
Gust
kts
17/11:30pm 18.5 18.0 12.7 69 3.2 E 7 11 4 6 - - 0.0
17/11:00pm 18.6 17.4 12.8 69 3.3 ENE 11 17 6 9 - - 0.0
17/10:30pm 19.0 17.7 12.5 66 3.6 ESE 11 17 6 9 - - 0.0
17/10:00pm 19.0 17.7 12.5 66 3.6 ESE 11 17 6 9 - - 0.0
17/09:30pm 19.0 17.5 11.8 63 4.0 ESE 11 17 6 9 - - 0.0
17/09:00pm 19.0 17.0 11.6 62 4.1 E 13 19 7 10 - - 0.0
17/08:30pm 19.0 16.6 11.3 61 4.2 ESE 15 20 8 11 - - 0.0
17/08:00pm 19.0 16.7 11.6 62 4.1 ESE 15 22 8 12 - - 0.0
17/07:30pm 19.1 16.1 11.9 63 4.0 SE 19 24 10 13 - - 0.0
17/07:00pm 19.2 17.0 12.2 64 3.9 SE 15 22 8 12 - - 0.0
17/06:30pm 19.2 16.6 12.0 63 4.0 SE 17 22 9 12 - - 0.0
17/06:00pm 19.3 15.8 12.1 63 4.0 SE 22 30 12 16 - - 0.0
17/05:30pm 19.6 16.7 12.4 63 4.0 SE 19 33 10 18 - - 0.0
17/05:00pm 19.5 16.4 12.3 63 4.0 SE 20 30 11 16 - - 0.0
17/04:30pm 20.0 17.0 12.7 63 4.1 SSE 20 32 11 17 - - 0.0
17/04:00pm 20.1 17.0 12.1 60 4.5 SE 20 30 11 16 - - 0.0
17/03:30pm 20.1 16.6 12.1 60 4.5 SE 22 37 12 20 - - 0.0
17/03:00pm 21.3 18.4 13.0 59 4.7 SSE 20 32 11 17 - - 0.0
17/02:30pm 20.5 16.5 11.7 57 4.9 SE 24 37 13 20 - - 0.0
17/02:00pm 21.4 17.8 13.1 59 4.7 SSE 24 32 13 17 - - 0.0

Latest Capital City Observations: Canberra | Sydney | Melbourne | Brisbane | Adelaide | Perth | Hobart | Darwin

Other Formats:

Comma delimited format used in spreadsheet applications
http://www.bom.gov.au/fwo/IDN60901/IDN60901.94766.axf

JavaScript Object Notation format (JSON) in row-major order
http://www.bom.gov.au/fwo/IDN60901/IDN60901.94766.json